sensor_id;sensor_type;location;lat;lon;timestamp;temperature;humidity
55083;DHT22;40978;52.850;6.506;2023-03-20T00:01:29;8.10;99.90
55083;DHT22;40978;52.850;6.506;2023-03-20T00:03:56;8.20;99.90
55083;DHT22;40978;52.850;6.506;2023-03-20T00:06:24;8.10;99.90
55083;DHT22;40978;52.850;6.506;2023-03-20T00:08:52;8.10;99.90
55083;DHT22;40978;52.850;6.506;2023-03-20T00:13:47;8.10;99.90
55083;DHT22;40978;52.850;6.506;2023-03-20T00:16:13;8.10;99.90
55083;DHT22;40978;52.850;6.506;2023-03-20T00:18:38;8.10;99.90
55083;DHT22;40978;52.850;6.506;2023-03-20T00:21:14;8.10;99.90
55083;DHT22;40978;52.850;6.506;2023-03-20T00:23:41;8.10;99.90
55083;DHT22;40978;52.850;6.506;2023-03-20T00:26:12;8.10;99.90
55083;DHT22;40978;52.850;6.506;2023-03-20T00:28:41;8.10;99.90
55083;DHT22;40978;52.850;6.506;2023-03-20T00:31:27;8.10;99.90
55083;DHT22;40978;52.850;6.506;2023-03-20T00:33:56;8.10;99.90
55083;DHT22;40978;52.850;6.506;2023-03-20T00:36:23;8.10;99.90
55083;DHT22;40978;52.850;6.506;2023-03-20T00:38:49;8.10;99.90
55083;DHT22;40978;52.850;6.506;2023-03-20T00:44:05;8.10;99.90
55083;DHT22;40978;52.850;6.506;2023-03-20T00:46:37;8.10;99.90
55083;DHT22;40978;52.850;6.506;2023-03-20T00:49:03;8.10;99.90
55083;DHT22;40978;52.850;6.506;2023-03-20T00:51:29;8.10;99.90
55083;DHT22;40978;52.850;6.506;2023-03-20T00:53:55;8.10;99.90
55083;DHT22;40978;52.850;6.506;2023-03-20T00:56:38;8.20;99.90
55083;DHT22;40978;52.850;6.506;2023-03-20T00:59:05;8.10;99.90
55083;DHT22;40978;52.850;6.506;2023-03-20T01:01:32;8.10;99.90
55083;DHT22;40978;52.850;6.506;2023-03-20T01:03:58;8.10;99.90
55083;DHT22;40978;52.850;6.506;2023-03-20T01:06:24;8.10;99.90
55083;DHT22;40978;52.850;6.506;2023-03-20T01:08:50;8.10;99.90
55083;DHT22;40978;52.850;6.506;2023-03-20T01:11:20;8.10;99.90
55083;DHT22;40978;52.850;6.506;2023-03-20T01:13:47;8.10;99.90
55083;DHT22;40978;52.850;6.506;2023-03-20T01:16:22;8.10;99.90
55083;DHT22;40978;52.850;6.506;2023-03-20T01:18:49;8.10;99.90
55083;DHT22;40978;52.850;6.506;2023-03-20T01:21:15;8.00;99.90
55083;DHT22;40978;52.850;6.506;2023-03-20T01:23:41;8.00;99.90
55083;DHT22;40978;52.850;6.506;2023-03-20T01:26:35;8.00;99.90
55083;DHT22;40978;52.850;6.506;2023-03-20T01:29:02;8.00;99.90
55083;DHT22;40978;52.850;6.506;2023-03-20T01:31:28;8.00;99.90
55083;DHT22;40978;52.850;6.506;2023-03-20T01:33:54;8.00;99.90
55083;DHT22;40978;52.850;6.506;2023-03-20T01:36:21;8.00;99.90
55083;DHT22;40978;52.850;6.506;2023-03-20T01:38:56;8.00;99.90
55083;DHT22;40978;52.850;6.506;2023-03-20T01:41:24;8.00;99.90
55083;DHT22;40978;52.850;6.506;2023-03-20T01:43:50;8.00;99.90
55083;DHT22;40978;52.850;6.506;2023-03-20T01:46:17;8.00;99.90
55083;DHT22;40978;52.850;6.506;2023-03-20T01:51:16;8.00;99.90
55083;DHT22;40978;52.850;6.506;2023-03-20T01:53:47;8.00;99.90
55083;DHT22;40978;52.850;6.506;2023-03-20T01:56:14;8.00;99.90
55083;DHT22;40978;52.850;6.506;2023-03-20T01:58:46;8.00;99.90
55083;DHT22;40978;52.850;6.506;2023-03-20T02:01:13;8.00;99.90
55083;DHT22;40978;52.850;6.506;2023-03-20T02:03:45;8.00;99.90
55083;DHT22;40978;52.850;6.506;2023-03-20T02:06:12;8.00;99.90
55083;DHT22;40978;52.850;6.506;2023-03-20T02:08:46;8.00;99.90
55083;DHT22;40978;52.850;6.506;2023-03-20T02:11:12;8.00;99.90
55083;DHT22;40978;52.850;6.506;2023-03-20T02:13:39;8.00;99.90
55083;DHT22;40978;52.850;6.506;2023-03-20T02:16:15;8.00;99.90
55083;DHT22;40978;52.850;6.506;2023-03-20T02:18:47;8.00;99.90
55083;DHT22;40978;52.850;6.506;2023-03-20T02:29:49;8.00;99.90
55083;DHT22;40978;52.850;6.506;2023-03-20T02:43:21;7.90;99.90
55083;DHT22;40978;52.850;6.506;2023-03-20T02:45:54;8.00;99.90
55083;DHT22;40978;52.850;6.506;2023-03-20T02:48:39;8.00;99.90
55083;DHT22;40978;52.850;6.506;2023-03-20T02:51:47;8.00;99.90
55083;DHT22;40978;52.850;6.506;2023-03-20T02:54:25;8.00;99.90
55083;DHT22;40978;52.850;6.506;2023-03-20T02:57:02;8.00;99.90
55083;DHT22;40978;52.850;6.506;2023-03-20T03:05:15;8.00;99.90
55083;DHT22;40978;52.850;6.506;2023-03-20T03:07:48;8.00;99.90
55083;DHT22;40978;52.850;6.506;2023-03-20T03:10:20;8.00;99.90
55083;DHT22;40978;52.850;6.506;2023-03-20T03:12:48;8.00;99.90
55083;DHT22;40978;52.850;6.506;2023-03-20T03:15:25;8.00;99.90
55083;DHT22;40978;52.850;6.506;2023-03-20T03:17:52;8.00;99.90
55083;DHT22;40978;52.850;6.506;2023-03-20T03:22:49;8.00;99.90
55083;DHT22;40978;52.850;6.506;2023-03-20T03:25:15;8.00;99.90
55083;DHT22;40978;52.850;6.506;2023-03-20T03:27:46;8.00;99.90
55083;DHT22;40978;52.850;6.506;2023-03-20T03:30:35;8.00;99.90
55083;DHT22;40978;52.850;6.506;2023-03-20T03:33:11;8.00;99.90
55083;DHT22;40978;52.850;6.506;2023-03-20T03:35:39;8.00;99.90
55083;DHT22;40978;52.850;6.506;2023-03-20T03:38:24;8.00;99.90
55083;DHT22;40978;52.850;6.506;2023-03-20T03:43:30;8.00;99.90
55083;DHT22;40978;52.850;6.506;2023-03-20T03:46:01;8.00;99.90
55083;DHT22;40978;52.850;6.506;2023-03-20T03:48:37;8.00;99.90
55083;DHT22;40978;52.850;6.506;2023-03-20T03:51:11;8.00;99.90
55083;DHT22;40978;52.850;6.506;2023-03-20T03:53:43;8.00;99.90
55083;DHT22;40978;52.850;6.506;2023-03-20T03:56:13;8.00;99.90
55083;DHT22;40978;52.850;6.506;2023-03-20T03:58:44;8.00;99.90
55083;DHT22;40978;52.850;6.506;2023-03-20T04:01:13;8.00;99.90
55083;DHT22;40978;52.850;6.506;2023-03-20T04:03:45;8.00;99.90
55083;DHT22;40978;52.850;6.506;2023-03-20T04:06:13;8.00;99.90
55083;DHT22;40978;52.850;6.506;2023-03-20T04:08:41;8.00;99.90
55083;DHT22;40978;52.850;6.506;2023-03-20T04:11:16;7.90;99.90
55083;DHT22;40978;52.850;6.506;2023-03-20T04:13:41;8.00;99.90
55083;DHT22;40978;52.850;6.506;2023-03-20T04:16:11;7.90;99.90
55083;DHT22;40978;52.850;6.506;2023-03-20T04:18:38;7.90;99.90
55083;DHT22;40978;52.850;6.506;2023-03-20T04:21:04;7.90;99.90
55083;DHT22;40978;52.850;6.506;2023-03-20T04:23:30;7.90;99.90
55083;DHT22;40978;52.850;6.506;2023-03-20T04:25:56;7.90;99.90
55083;DHT22;40978;52.850;6.506;2023-03-20T04:28:21;7.90;99.90
55083;DHT22;40978;52.850;6.506;2023-03-20T04:30:55;7.80;99.90
55083;DHT22;40978;52.850;6.506;2023-03-20T04:33:21;7.80;99.90
55083;DHT22;40978;52.850;6.506;2023-03-20T04:35:47;7.80;99.90
55083;DHT22;40978;52.850;6.506;2023-03-20T04:38:13;7.80;99.90
55083;DHT22;40978;52.850;6.506;2023-03-20T04:40:40;7.80;99.90
55083;DHT22;40978;52.850;6.506;2023-03-20T04:43:06;7.80;99.90
55083;DHT22;40978;52.850;6.506;2023-03-20T04:45:31;7.80;99.90
55083;DHT22;40978;52.850;6.506;2023-03-20T04:47:57;7.80;99.90
55083;DHT22;40978;52.850;6.506;2023-03-20T04:50:23;7.80;99.90
55083;DHT22;40978;52.850;6.506;2023-03-20T04:52:48;7.80;99.90
55083;DHT22;40978;52.850;6.506;2023-03-20T04:55:14;7.80;99.90
55083;DHT22;40978;52.850;6.506;2023-03-20T04:57:40;7.80;99.90
55083;DHT22;40978;52.850;6.506;2023-03-20T05:00:07;7.80;99.90
55083;DHT22;40978;52.850;6.506;2023-03-20T05:02:32;7.80;99.90
55083;DHT22;40978;52.850;6.506;2023-03-20T05:04:58;7.80;99.90
55083;DHT22;40978;52.850;6.506;2023-03-20T05:07:24;7.80;99.90
55083;DHT22;40978;52.850;6.506;2023-03-20T05:09:50;7.70;99.90
55083;DHT22;40978;52.850;6.506;2023-03-20T05:12:16;7.70;99.90
55083;DHT22;40978;52.850;6.506;2023-03-20T05:14:41;7.70;99.90
55083;DHT22;40978;52.850;6.506;2023-03-20T05:17:07;7.70;99.90
55083;DHT22;40978;52.850;6.506;2023-03-20T05:19:33;7.70;99.90
55083;DHT22;40978;52.850;6.506;2023-03-20T05:21:59;7.70;99.90
55083;DHT22;40978;52.850;6.506;2023-03-20T05:24:25;7.60;99.90
55083;DHT22;40978;52.850;6.506;2023-03-20T05:26:53;7.70;99.90
55083;DHT22;40978;52.850;6.506;2023-03-20T05:29:19;7.70;99.90
55083;DHT22;40978;52.850;6.506;2023-03-20T05:31:45;7.70;99.90
55083;DHT22;40978;52.850;6.506;2023-03-20T05:34:11;7.70;99.90
55083;DHT22;40978;52.850;6.506;2023-03-20T05:36:37;7.70;99.90
55083;DHT22;40978;52.850;6.506;2023-03-20T05:39:02;7.70;99.90
55083;DHT22;40978;52.850;6.506;2023-03-20T05:41:28;7.70;99.90
55083;DHT22;40978;52.850;6.506;2023-03-20T05:43:54;7.70;99.90
55083;DHT22;40978;52.850;6.506;2023-03-20T05:46:20;7.60;99.90
55083;DHT22;40978;52.850;6.506;2023-03-20T05:48:47;7.70;99.90
55083;DHT22;40978;52.850;6.506;2023-03-20T05:51:13;7.70;99.90
55083;DHT22;40978;52.850;6.506;2023-03-20T05:53:38;7.70;99.90
55083;DHT22;40978;52.850;6.506;2023-03-20T05:56:05;7.70;99.90
55083;DHT22;40978;52.850;6.506;2023-03-20T05:58:31;7.70;99.90
55083;DHT22;40978;52.850;6.506;2023-03-20T06:00:57;7.70;99.90
55083;DHT22;40978;52.850;6.506;2023-03-20T06:03:23;7.70;99.90
55083;DHT22;40978;52.850;6.506;2023-03-20T06:05:48;7.70;99.90
55083;DHT22;40978;52.850;6.506;2023-03-20T06:08:14;7.70;99.90
55083;DHT22;40978;52.850;6.506;2023-03-20T06:10:40;7.70;99.90
55083;DHT22;40978;52.850;6.506;2023-03-20T06:13:06;7.70;99.90
55083;DHT22;40978;52.850;6.506;2023-03-20T06:15:32;7.70;99.90
55083;DHT22;40978;52.850;6.506;2023-03-20T06:17:58;7.70;99.90
55083;DHT22;40978;52.850;6.506;2023-03-20T06:20:24;7.70;99.90
55083;DHT22;40978;52.850;6.506;2023-03-20T06:22:50;7.70;99.90
55083;DHT22;40978;52.850;6.506;2023-03-20T06:25:17;7.80;99.90
55083;DHT22;40978;52.850;6.506;2023-03-20T06:27:45;7.80;99.90
55083;DHT22;40978;52.850;6.506;2023-03-20T06:30:12;7.80;99.90
55083;DHT22;40978;52.850;6.506;2023-03-20T06:32:38;7.80;99.90
55083;DHT22;40978;52.850;6.506;2023-03-20T06:35:05;7.90;99.90
55083;DHT22;40978;52.850;6.506;2023-03-20T06:37:32;7.90;99.90
55083;DHT22;40978;52.850;6.506;2023-03-20T06:39:58;7.90;99.90
55083;DHT22;40978;52.850;6.506;2023-03-20T06:42:24;7.90;99.90
55083;DHT22;40978;52.850;6.506;2023-03-20T06:44:49;8.00;99.90
55083;DHT22;40978;52.850;6.506;2023-03-20T06:47:15;8.00;99.90
55083;DHT22;40978;52.850;6.506;2023-03-20T06:49:41;8.00;99.90
55083;DHT22;40978;52.850;6.506;2023-03-20T06:52:16;8.00;99.90
55083;DHT22;40978;52.850;6.506;2023-03-20T06:54:43;8.10;99.90
55083;DHT22;40978;52.850;6.506;2023-03-20T06:57:09;8.10;99.90
55083;DHT22;40978;52.850;6.506;2023-03-20T06:59:34;8.10;99.90
55083;DHT22;40978;52.850;6.506;2023-03-20T07:02:01;8.10;99.90
55083;DHT22;40978;52.850;6.506;2023-03-20T07:04:27;8.20;99.90
55083;DHT22;40978;52.850;6.506;2023-03-20T07:06:54;8.20;99.90
55083;DHT22;40978;52.850;6.506;2023-03-20T07:09:19;8.20;99.90
55083;DHT22;40978;52.850;6.506;2023-03-20T07:11:47;8.20;99.90
55083;DHT22;40978;52.850;6.506;2023-03-20T07:14:13;8.30;99.90
55083;DHT22;40978;52.850;6.506;2023-03-20T07:16:39;8.30;99.90
55083;DHT22;40978;52.850;6.506;2023-03-20T07:19:06;8.30;99.90
55083;DHT22;40978;52.850;6.506;2023-03-20T07:21:31;8.30;99.90
55083;DHT22;40978;52.850;6.506;2023-03-20T07:23:57;8.30;99.90
55083;DHT22;40978;52.850;6.506;2023-03-20T07:26:23;8.30;99.90
55083;DHT22;40978;52.850;6.506;2023-03-20T07:28:50;8.30;99.90
55083;DHT22;40978;52.850;6.506;2023-03-20T07:31:21;8.30;99.90
55083;DHT22;40978;52.850;6.506;2023-03-20T07:33:47;8.40;99.90
55083;DHT22;40978;52.850;6.506;2023-03-20T07:36:13;8.40;99.90
55083;DHT22;40978;52.850;6.506;2023-03-20T07:38:39;8.50;99.90
55083;DHT22;40978;52.850;6.506;2023-03-20T07:41:05;8.50;99.90
55083;DHT22;40978;52.850;6.506;2023-03-20T07:43:31;8.60;99.90
55083;DHT22;40978;52.850;6.506;2023-03-20T07:45:57;8.60;99.90
55083;DHT22;40978;52.850;6.506;2023-03-20T07:48:22;8.70;99.90
55083;DHT22;40978;52.850;6.506;2023-03-20T07:50:48;8.70;99.90
55083;DHT22;40978;52.850;6.506;2023-03-20T07:53:14;8.60;99.90
55083;DHT22;40978;52.850;6.506;2023-03-20T07:55:39;8.70;99.90
55083;DHT22;40978;52.850;6.506;2023-03-20T07:58:05;8.80;99.90
55083;DHT22;40978;52.850;6.506;2023-03-20T08:00:32;8.80;99.90
55083;DHT22;40978;52.850;6.506;2023-03-20T08:02:58;8.80;99.90
55083;DHT22;40978;52.850;6.506;2023-03-20T08:05:24;8.90;99.90
55083;DHT22;40978;52.850;6.506;2023-03-20T08:07:50;9.00;99.90
55083;DHT22;40978;52.850;6.506;2023-03-20T08:10:16;9.00;99.90
55083;DHT22;40978;52.850;6.506;2023-03-20T08:12:42;9.10;99.90
55083;DHT22;40978;52.850;6.506;2023-03-20T08:15:08;9.10;99.90
55083;DHT22;40978;52.850;6.506;2023-03-20T08:17:33;9.20;99.90
55083;DHT22;40978;52.850;6.506;2023-03-20T08:19:59;9.20;99.90
55083;DHT22;40978;52.850;6.506;2023-03-20T08:22:25;9.20;99.90
55083;DHT22;40978;52.850;6.506;2023-03-20T08:24:51;9.30;99.90
55083;DHT22;40978;52.850;6.506;2023-03-20T08:27:16;9.30;99.90
55083;DHT22;40978;52.850;6.506;2023-03-20T08:29:42;9.40;99.90
55083;DHT22;40978;52.850;6.506;2023-03-20T08:32:08;9.50;99.90
55083;DHT22;40978;52.850;6.506;2023-03-20T08:34:33;9.60;99.90
55083;DHT22;40978;52.850;6.506;2023-03-20T08:37:02;9.70;99.90
55083;DHT22;40978;52.850;6.506;2023-03-20T08:39:28;9.90;99.90
55083;DHT22;40978;52.850;6.506;2023-03-20T08:41:53;10.10;99.90
55083;DHT22;40978;52.850;6.506;2023-03-20T08:44:19;10.30;99.90
55083;DHT22;40978;52.850;6.506;2023-03-20T08:46:45;10.60;99.90
55083;DHT22;40978;52.850;6.506;2023-03-20T08:49:11;10.70;99.90
55083;DHT22;40978;52.850;6.506;2023-03-20T08:51:37;10.90;99.90
55083;DHT22;40978;52.850;6.506;2023-03-20T08:54:03;11.20;99.90
55083;DHT22;40978;52.850;6.506;2023-03-20T08:56:28;11.50;99.90
55083;DHT22;40978;52.850;6.506;2023-03-20T08:58:54;11.70;99.90
55083;DHT22;40978;52.850;6.506;2023-03-20T09:01:20;11.80;99.90
55083;DHT22;40978;52.850;6.506;2023-03-20T09:03:46;11.80;99.90
55083;DHT22;40978;52.850;6.506;2023-03-20T09:06:12;11.90;99.90
55083;DHT22;40978;52.850;6.506;2023-03-20T09:08:38;11.90;99.90
55083;DHT22;40978;52.850;6.506;2023-03-20T09:11:04;11.90;99.90
55083;DHT22;40978;52.850;6.506;2023-03-20T09:13:30;11.90;99.90
55083;DHT22;40978;52.850;6.506;2023-03-20T09:15:56;12.00;99.90
55083;DHT22;40978;52.850;6.506;2023-03-20T09:18:23;12.30;99.90
55083;DHT22;40978;52.850;6.506;2023-03-20T09:20:49;12.30;99.90
55083;DHT22;40978;52.850;6.506;2023-03-20T09:23:15;12.40;99.90
55083;DHT22;40978;52.850;6.506;2023-03-20T09:25:41;12.70;99.90
55083;DHT22;40978;52.850;6.506;2023-03-20T09:28:07;13.00;99.90
55083;DHT22;40978;52.850;6.506;2023-03-20T09:30:32;13.50;99.90
55083;DHT22;40978;52.850;6.506;2023-03-20T09:32:58;13.70;99.90
55083;DHT22;40978;52.850;6.506;2023-03-20T09:35:24;13.90;99.90
55083;DHT22;40978;52.850;6.506;2023-03-20T09:37:50;14.10;99.90
55083;DHT22;40978;52.850;6.506;2023-03-20T09:40:28;14.00;99.90
55083;DHT22;40978;52.850;6.506;2023-03-20T09:43:13;13.90;99.90
55083;DHT22;40978;52.850;6.506;2023-03-20T09:48:39;13.50;99.90
55083;DHT22;40978;52.850;6.506;2023-03-20T09:53:55;13.50;99.90
55083;DHT22;40978;52.850;6.506;2023-03-20T09:56:26;13.60;99.90
55083;DHT22;40978;52.850;6.506;2023-03-20T09:58:58;13.50;99.90
55083;DHT22;40978;52.850;6.506;2023-03-20T10:01:45;13.30;99.90
55083;DHT22;40978;52.850;6.506;2023-03-20T10:04:12;13.20;99.90
55083;DHT22;40978;52.850;6.506;2023-03-20T10:06:38;13.10;99.90
55083;DHT22;40978;52.850;6.506;2023-03-20T10:09:20;13.10;99.90
55083;DHT22;40978;52.850;6.506;2023-03-20T10:19:59;12.60;99.90
55083;DHT22;40978;52.850;6.506;2023-03-20T10:22:34;12.50;99.90
55083;DHT22;40978;52.850;6.506;2023-03-20T10:27:57;12.20;99.90
55083;DHT22;40978;52.850;6.506;2023-03-20T10:39:18;11.50;99.90
55083;DHT22;40978;52.850;6.506;2023-03-20T10:41:56;11.40;99.90
55083;DHT22;40978;52.850;6.506;2023-03-20T10:44:35;11.30;99.90
55083;DHT22;40978;52.850;6.506;2023-03-20T10:47:06;11.30;99.90
55083;DHT22;40978;52.850;6.506;2023-03-20T10:49:44;11.30;99.90
55083;DHT22;40978;52.850;6.506;2023-03-20T10:52:24;11.30;99.90
55083;DHT22;40978;52.850;6.506;2023-03-20T10:55:15;11.30;99.90
55083;DHT22;40978;52.850;6.506;2023-03-20T10:57:51;11.30;99.90
55083;DHT22;40978;52.850;6.506;2023-03-20T11:00:22;11.30;99.90
55083;DHT22;40978;52.850;6.506;2023-03-20T11:02:49;11.30;99.90
55083;DHT22;40978;52.850;6.506;2023-03-20T11:07:44;11.30;99.90
55083;DHT22;40978;52.850;6.506;2023-03-20T11:10:13;11.40;99.90
55083;DHT22;40978;52.850;6.506;2023-03-20T11:12:46;11.40;99.90
55083;DHT22;40978;52.850;6.506;2023-03-20T11:17:56;11.20;99.90
55083;DHT22;40978;52.850;6.506;2023-03-20T11:20:23;11.10;99.90
55083;DHT22;40978;52.850;6.506;2023-03-20T11:22:49;11.10;99.90
55083;DHT22;40978;52.850;6.506;2023-03-20T11:25:27;11.00;99.90
55083;DHT22;40978;52.850;6.506;2023-03-20T11:27:54;11.10;99.90
55083;DHT22;40978;52.850;6.506;2023-03-20T11:30:21;11.00;99.90
55083;DHT22;40978;52.850;6.506;2023-03-20T11:32:49;11.00;99.90
55083;DHT22;40978;52.850;6.506;2023-03-20T11:37:54;11.00;99.90
55083;DHT22;40978;52.850;6.506;2023-03-20T11:40:32;11.00;99.90
55083;DHT22;40978;52.850;6.506;2023-03-20T11:43:02;11.00;99.90
55083;DHT22;40978;52.850;6.506;2023-03-20T11:45:35;11.00;99.90
55083;DHT22;40978;52.850;6.506;2023-03-20T11:48:02;11.10;99.90
55083;DHT22;40978;52.850;6.506;2023-03-20T11:50:41;11.00;99.90
55083;DHT22;40978;52.850;6.506;2023-03-20T11:53:28;11.00;99.90
55083;DHT22;40978;52.850;6.506;2023-03-20T11:56:02;10.90;99.90
55083;DHT22;40978;52.850;6.506;2023-03-20T11:58:28;10.80;99.90
55083;DHT22;40978;52.850;6.506;2023-03-20T12:00:56;10.80;99.90
55083;DHT22;40978;52.850;6.506;2023-03-20T12:03:40;10.70;99.90
55083;DHT22;40978;52.850;6.506;2023-03-20T12:06:12;10.80;99.90
55083;DHT22;40978;52.850;6.506;2023-03-20T12:08:40;10.70;99.90
55083;DHT22;40978;52.850;6.506;2023-03-20T12:11:33;10.70;99.90
55083;DHT22;40978;52.850;6.506;2023-03-20T12:14:02;10.70;99.90
55083;DHT22;40978;52.850;6.506;2023-03-20T12:16:31;10.70;99.90
55083;DHT22;40978;52.850;6.506;2023-03-20T12:19:04;10.50;99.90
55083;DHT22;40978;52.850;6.506;2023-03-20T12:22:00;10.50;99.90
55083;DHT22;40978;52.850;6.506;2023-03-20T12:24:42;10.40;99.90
55083;DHT22;40978;52.850;6.506;2023-03-20T12:32:35;10.60;99.90
55083;DHT22;40978;52.850;6.506;2023-03-20T12:35:35;10.70;99.90
55083;DHT22;40978;52.850;6.506;2023-03-20T12:37:58;10.80;99.90
55083;DHT22;40978;52.850;6.506;2023-03-20T12:40:37;10.70;99.90
55083;DHT22;40978;52.850;6.506;2023-03-20T12:43:13;10.70;99.90
55083;DHT22;40978;52.850;6.506;2023-03-20T12:46:04;10.60;99.90
55083;DHT22;40978;52.850;6.506;2023-03-20T12:48:46;10.50;99.90
55083;DHT22;40978;52.850;6.506;2023-03-20T12:54:19;10.60;99.90
55083;DHT22;40978;52.850;6.506;2023-03-20T13:02:33;10.50;99.90
55083;DHT22;40978;52.850;6.506;2023-03-20T13:05:09;10.40;99.90
55083;DHT22;40978;52.850;6.506;2023-03-20T13:07:57;10.30;99.90
55083;DHT22;40978;52.850;6.506;2023-03-20T13:10:35;10.40;99.90
55083;DHT22;40978;52.850;6.506;2023-03-20T13:19:00;10.40;99.90
55083;DHT22;40978;52.850;6.506;2023-03-20T13:21:35;10.40;99.90
55083;DHT22;40978;52.850;6.506;2023-03-20T13:26:35;10.30;99.90
55083;DHT22;40978;52.850;6.506;2023-03-20T13:37:59;10.00;99.90
55083;DHT22;40978;52.850;6.506;2023-03-20T13:40:29;9.90;99.90
55083;DHT22;40978;52.850;6.506;2023-03-20T13:45:58;9.80;99.90
55083;DHT22;40978;52.850;6.506;2023-03-20T13:48:36;9.80;99.90
55083;DHT22;40978;52.850;6.506;2023-03-20T13:56:42;9.70;99.90
55083;DHT22;40978;52.850;6.506;2023-03-20T14:02:10;9.60;99.90
55083;DHT22;40978;52.850;6.506;2023-03-20T14:04:40;9.50;99.90
55083;DHT22;40978;52.850;6.506;2023-03-20T14:07:45;9.50;99.90
55083;DHT22;40978;52.850;6.506;2023-03-20T14:12:57;9.40;99.90
55083;DHT22;40978;52.850;6.506;2023-03-20T14:15:27;9.40;99.90
55083;DHT22;40978;52.850;6.506;2023-03-20T14:17:56;9.40;99.90
55083;DHT22;40978;52.850;6.506;2023-03-20T14:20:38;9.40;99.90
55083;DHT22;40978;52.850;6.506;2023-03-20T14:23:05;9.40;99.90
55083;DHT22;40978;52.850;6.506;2023-03-20T14:25:39;9.30;99.90
55083;DHT22;40978;52.850;6.506;2023-03-20T14:30:44;9.30;99.90
55083;DHT22;40978;52.850;6.506;2023-03-20T14:35:45;9.20;99.90
55083;DHT22;40978;52.850;6.506;2023-03-20T14:46:45;9.10;99.90
55083;DHT22;40978;52.850;6.506;2023-03-20T14:51:44;9.00;99.90
55083;DHT22;40978;52.850;6.506;2023-03-20T14:54:27;9.00;99.90
55083;DHT22;40978;52.850;6.506;2023-03-20T14:57:14;9.00;99.90
55083;DHT22;40978;52.850;6.506;2023-03-20T14:59:41;9.00;99.90
55083;DHT22;40978;52.850;6.506;2023-03-20T15:02:23;9.10;99.90
55083;DHT22;40978;52.850;6.506;2023-03-20T15:04:50;9.10;99.90
55083;DHT22;40978;52.850;6.506;2023-03-20T15:07:23;9.10;99.90
55083;DHT22;40978;52.850;6.506;2023-03-20T15:09:52;9.10;99.90
55083;DHT22;40978;52.850;6.506;2023-03-20T15:12:22;9.10;99.90
55083;DHT22;40978;52.850;6.506;2023-03-20T15:15:00;9.10;99.90
55083;DHT22;40978;52.850;6.506;2023-03-20T15:17:35;9.00;99.90
55083;DHT22;40978;52.850;6.506;2023-03-20T15:20:25;9.10;99.90
55083;DHT22;40978;52.850;6.506;2023-03-20T15:22:58;9.10;99.90
55083;DHT22;40978;52.850;6.506;2023-03-20T15:25:42;9.10;99.90
55083;DHT22;40978;52.850;6.506;2023-03-20T15:28:21;9.10;99.90
55083;DHT22;40978;52.850;6.506;2023-03-20T15:30:49;9.10;99.90
55083;DHT22;40978;52.850;6.506;2023-03-20T15:33:18;9.10;99.90
55083;DHT22;40978;52.850;6.506;2023-03-20T15:35:45;9.10;99.90
55083;DHT22;40978;52.850;6.506;2023-03-20T15:38:13;9.10;99.90
55083;DHT22;40978;52.850;6.506;2023-03-20T15:40:41;9.10;99.90
55083;DHT22;40978;52.850;6.506;2023-03-20T15:43:11;9.10;99.90
55083;DHT22;40978;52.850;6.506;2023-03-20T15:45:40;9.10;99.90
55083;DHT22;40978;52.850;6.506;2023-03-20T15:48:14;9.00;99.90
55083;DHT22;40978;52.850;6.506;2023-03-20T15:50:45;9.00;99.90
55083;DHT22;40978;52.850;6.506;2023-03-20T15:53:28;9.00;99.90
55083;DHT22;40978;52.850;6.506;2023-03-20T15:56:17;9.00;99.90
55083;DHT22;40978;52.850;6.506;2023-03-20T15:58:45;9.00;99.90
55083;DHT22;40978;52.850;6.506;2023-03-20T16:01:19;9.00;99.90
55083;DHT22;40978;52.850;6.506;2023-03-20T16:03:46;8.90;99.90
55083;DHT22;40978;52.850;6.506;2023-03-20T16:06:16;8.90;99.90
55083;DHT22;40978;52.850;6.506;2023-03-20T16:08:43;8.90;99.90
55083;DHT22;40978;52.850;6.506;2023-03-20T16:11:14;8.90;99.90
55083;DHT22;40978;52.850;6.506;2023-03-20T16:13:45;8.90;99.90
55083;DHT22;40978;52.850;6.506;2023-03-20T16:16:18;8.90;99.90
55083;DHT22;40978;52.850;6.506;2023-03-20T16:18:46;8.90;99.90
55083;DHT22;40978;52.850;6.506;2023-03-20T16:21:27;8.90;99.90
55083;DHT22;40978;52.850;6.506;2023-03-20T16:23:58;8.90;99.90
55083;DHT22;40978;52.850;6.506;2023-03-20T16:26:25;8.90;99.90
55083;DHT22;40978;52.850;6.506;2023-03-20T16:28:55;8.90;99.90
55083;DHT22;40978;52.850;6.506;2023-03-20T16:31:29;8.90;99.90
55083;DHT22;40978;52.850;6.506;2023-03-20T16:34:06;8.90;99.90
55083;DHT22;40978;52.850;6.506;2023-03-20T16:36:37;8.90;99.90
55083;DHT22;40978;52.850;6.506;2023-03-20T16:41:42;8.90;99.90
55083;DHT22;40978;52.850;6.506;2023-03-20T16:44:19;8.90;99.90
55083;DHT22;40978;52.850;6.506;2023-03-20T16:52:26;8.90;99.90
55083;DHT22;40978;52.850;6.506;2023-03-20T16:54:55;8.80;99.90
55083;DHT22;40978;52.850;6.506;2023-03-20T16:57:21;8.80;99.90
55083;DHT22;40978;52.850;6.506;2023-03-20T16:59:48;8.80;99.90
55083;DHT22;40978;52.850;6.506;2023-03-20T17:02:28;8.80;99.90
55083;DHT22;40978;52.850;6.506;2023-03-20T17:04:56;8.80;99.90
55083;DHT22;40978;52.850;6.506;2023-03-20T17:07:26;8.80;99.90
55083;DHT22;40978;52.850;6.506;2023-03-20T17:12:34;8.80;99.90
55083;DHT22;40978;52.850;6.506;2023-03-20T17:15:03;8.80;99.90
55083;DHT22;40978;52.850;6.506;2023-03-20T17:17:29;8.80;99.90
55083;DHT22;40978;52.850;6.506;2023-03-20T17:19:54;8.70;99.90
55083;DHT22;40978;52.850;6.506;2023-03-20T17:22:22;8.70;99.90
55083;DHT22;40978;52.850;6.506;2023-03-20T17:24:49;8.70;99.90
55083;DHT22;40978;52.850;6.506;2023-03-20T17:27:16;8.70;99.90
55083;DHT22;40978;52.850;6.506;2023-03-20T17:29:43;8.70;99.90
55083;DHT22;40978;52.850;6.506;2023-03-20T17:32:17;8.80;99.90
55083;DHT22;40978;52.850;6.506;2023-03-20T17:34:43;8.70;99.90
55083;DHT22;40978;52.850;6.506;2023-03-20T17:37:24;8.70;99.90
55083;DHT22;40978;52.850;6.506;2023-03-20T17:39:51;8.70;99.90
55083;DHT22;40978;52.850;6.506;2023-03-20T17:42:23;8.70;99.90
55083;DHT22;40978;52.850;6.506;2023-03-20T17:44:51;8.70;99.90
55083;DHT22;40978;52.850;6.506;2023-03-20T17:47:20;8.70;99.90
55083;DHT22;40978;52.850;6.506;2023-03-20T17:49:46;8.70;99.90
55083;DHT22;40978;52.850;6.506;2023-03-20T17:52:18;8.70;99.90
55083;DHT22;40978;52.850;6.506;2023-03-20T17:54:45;8.70;99.90
55083;DHT22;40978;52.850;6.506;2023-03-20T17:57:34;8.70;99.90
55083;DHT22;40978;52.850;6.506;2023-03-20T18:00:08;8.70;99.90
55083;DHT22;40978;52.850;6.506;2023-03-20T18:02:34;8.70;99.90
55083;DHT22;40978;52.850;6.506;2023-03-20T18:05:00;8.70;99.90
55083;DHT22;40978;52.850;6.506;2023-03-20T18:07:26;8.60;99.90
55083;DHT22;40978;52.850;6.506;2023-03-20T18:09:51;8.60;99.90
55083;DHT22;40978;52.850;6.506;2023-03-20T18:12:17;8.70;99.90
55083;DHT22;40978;52.850;6.506;2023-03-20T18:14:44;8.60;99.90
55083;DHT22;40978;52.850;6.506;2023-03-20T18:17:12;8.60;99.90
55083;DHT22;40978;52.850;6.506;2023-03-20T18:19:38;8.60;99.90
55083;DHT22;40978;52.850;6.506;2023-03-20T18:22:03;8.60;99.90
55083;DHT22;40978;52.850;6.506;2023-03-20T18:24:29;8.60;99.90